createdAt,value
2018-07-15T00:01:41.656Z,58.36
2018-07-15T00:04:09.332Z,58.58
2018-07-15T00:06:37.035Z,58.74
2018-07-15T00:09:06.810Z,58.28
2018-07-15T00:11:34.532Z,58.48
2018-07-15T00:14:03.050Z,58.90
2018-07-15T00:16:31.054Z,58.84
2018-07-15T00:18:58.768Z,59.07
2018-07-15T00:21:26.450Z,59.14
2018-07-15T00:23:54.114Z,58.56
2018-07-15T00:26:25.356Z,58.94
2018-07-15T00:28:53.059Z,59.02
2018-07-15T00:31:20.754Z,58.83
2018-07-15T00:33:49.435Z,59.35
2018-07-15T00:36:18.909Z,59.31
2018-07-15T00:38:46.662Z,58.94
2018-07-15T00:41:14.750Z,59.13
2018-07-15T00:43:42.477Z,59.15
2018-07-15T00:46:10.207Z,59.51
2018-07-15T00:48:38.234Z,59.53
2018-07-15T00:51:05.909Z,59.74
2018-07-15T00:53:33.609Z,59.48
2018-07-15T00:56:01.602Z,59.28
2018-07-15T00:58:29.269Z,59.26
2018-07-15T01:01:02.616Z,59.32
2018-07-15T01:03:30.676Z,59.31
2018-07-15T01:05:58.708Z,59.29
2018-07-15T01:08:26.389Z,59.57
2018-07-15T01:10:54.094Z,59.54
2018-07-15T01:13:21.799Z,59.91
2018-07-15T01:15:49.816Z,60.33
2018-07-15T01:18:17.483Z,60.37
2018-07-15T01:20:45.170Z,60.48
2018-07-15T01:23:13.243Z,60.13
2018-07-15T01:25:40.937Z,60.58
2018-07-15T01:28:09.668Z,60.49
2018-07-15T01:30:37.413Z,60.75
2018-07-15T01:33:05.471Z,60.77
2018-07-15T01:35:33.181Z,60.67
2018-07-15T01:38:00.883Z,60.26
2018-07-15T01:40:29.477Z,60.16
2018-07-15T01:42:57.166Z,61.07
2018-07-15T01:45:24.829Z,60.63
2018-07-15T01:47:52.836Z,60.70
2018-07-15T01:50:20.855Z,60.64
2018-07-15T01:52:49.272Z,60.34
2018-07-15T01:55:16.979Z,60.64
2018-07-15T01:57:44.981Z,60.54
2018-07-15T02:00:13.745Z,60.52
2018-07-15T02:02:41.457Z,60.45
2018-07-15T02:05:09.151Z,60.54
2018-07-15T02:07:38.158Z,61.05
2018-07-15T02:10:05.884Z,61.00
2018-07-15T02:12:33.598Z,60.78
2018-07-15T02:15:02.911Z,60.89
2018-07-15T02:17:31.005Z,61.07
2018-07-15T02:19:59.281Z,60.81
2018-07-15T02:22:26.953Z,61.18
2018-07-15T02:24:54.908Z,60.94
2018-07-15T02:27:22.620Z,61.13
2018-07-15T02:29:50.304Z,61.37
2018-07-15T02:32:18.257Z,61.43
2018-07-15T02:34:45.909Z,61.87
2018-07-15T02:37:13.593Z,61.53
2018-07-15T02:39:41.257Z,61.73
2018-07-15T02:42:09.253Z,61.74
2018-07-15T02:44:36.951Z,61.83
2018-07-15T02:47:04.674Z,61.25
2018-07-15T02:49:32.737Z,61.72
2018-07-15T02:52:00.416Z,61.83
2018-07-15T02:54:28.118Z,61.66
2018-07-15T02:56:55.809Z,61.35
2018-07-15T02:59:23.745Z,61.94
2018-07-15T03:01:51.447Z,61.75
2018-07-15T03:04:19.177Z,61.49
2018-07-15T03:06:51.645Z,61.82
2018-07-15T03:09:19.642Z,61.57
2018-07-15T03:11:47.576Z,61.93
2018-07-15T03:14:15.267Z,61.95
2018-07-15T03:16:42.978Z,62.36
2018-07-15T03:19:10.694Z,61.76
2018-07-15T03:21:38.718Z,62.05
2018-07-15T03:24:06.431Z,61.99
2018-07-15T03:26:34.462Z,62.41
2018-07-15T03:29:02.148Z,62.22
2018-07-15T03:31:29.823Z,62.61
2018-07-15T03:33:57.514Z,62.37
2018-07-15T03:36:27.235Z,62.49
2018-07-15T03:38:54.931Z,62.27
2018-07-15T03:41:22.625Z,62.25
2018-07-15T03:43:50.438Z,62.45
2018-07-15T03:46:20.051Z,62.70
2018-07-15T03:48:47.694Z,62.20
2018-07-15T03:51:15.426Z,62.82
2018-07-15T03:53:43.412Z,62.92
2018-07-15T03:56:11.632Z,62.80
2018-07-15T03:58:39.325Z,62.57
2018-07-15T04:01:07.339Z,62.59
2018-07-15T04:03:35.031Z,62.57
2018-07-15T04:06:02.720Z,62.86
2018-07-15T04:08:31.574Z,62.68
2018-07-15T04:10:59.538Z,63.03
2018-07-15T04:13:27.242Z,63.20
2018-07-15T04:15:54.939Z,62.79
2018-07-15T04:18:22.605Z,63.10
2018-07-15T04:20:50.261Z,63.38
2018-07-15T04:23:17.930Z,62.96
2018-07-15T04:25:45.634Z,62.97
2018-07-15T04:28:13.663Z,63.29
2018-07-15T04:30:41.335Z,63.16
2018-07-15T04:33:09.029Z,62.91
2018-07-15T04:35:36.978Z,63.08
2018-07-15T04:38:04.667Z,62.75
2018-07-15T04:40:32.355Z,62.56
2018-07-15T04:43:00.114Z,62.36
2018-07-15T04:45:28.610Z,62.36
2018-07-15T04:47:56.307Z,62.61
2018-07-15T04:50:23.997Z,62.75
2018-07-15T04:52:52.319Z,62.40
2018-07-15T04:55:20.345Z,62.75
2018-07-15T04:57:48.014Z,62.52
2018-07-15T05:00:16.293Z,62.59
2018-07-15T05:02:43.953Z,62.19
2018-07-15T05:05:11.915Z,62.30
2018-07-15T05:07:40.518Z,62.63
2018-07-15T05:10:08.201Z,62.51
2018-07-15T05:12:35.896Z,61.99
2018-07-15T05:15:03.881Z,62.09
2018-07-15T05:17:31.656Z,62.59
2018-07-15T05:19:59.348Z,62.23
2018-07-15T05:22:29.288Z,62.14
2018-07-15T05:24:57.523Z,62.34
2018-07-15T05:27:25.208Z,62.14
2018-07-15T05:29:53.584Z,62.23
2018-07-15T05:32:21.605Z,61.87
2018-07-15T05:34:49.363Z,61.65
2018-07-15T05:37:17.059Z,62.14
2018-07-15T05:39:44.747Z,61.92
2018-07-15T05:42:12.741Z,62.00
2018-07-15T05:44:40.429Z,61.84
2018-07-15T05:47:08.128Z,61.96
2018-07-15T05:49:35.905Z,61.56
2018-07-15T05:52:04.717Z,61.72
2018-07-15T05:54:32.434Z,61.68
2018-07-15T05:57:01.353Z,61.39
2018-07-15T05:59:29.333Z,61.29
2018-07-15T06:01:57.803Z,61.70
2018-07-15T06:04:25.483Z,61.00
2018-07-15T06:06:53.527Z,61.14
2018-07-15T06:09:21.509Z,61.02
2018-07-15T06:11:49.211Z,61.01
2018-07-15T06:14:20.582Z,61.00
2018-07-15T06:16:48.285Z,60.94
2018-07-15T06:19:16.278Z,61.34
2018-07-15T06:21:43.937Z,60.74
2018-07-15T06:24:11.639Z,60.65
2018-07-15T06:26:39.608Z,60.95
2018-07-15T06:29:07.318Z,60.55
2018-07-15T06:31:35.267Z,60.83
2018-07-15T06:34:03.770Z,60.13
2018-07-15T06:36:31.762Z,60.55
2018-07-15T06:38:59.449Z,60.12
2018-07-15T06:41:27.279Z,59.89
2018-07-15T06:43:54.949Z,60.06
2018-07-15T06:46:26.025Z,60.23
2018-07-15T06:48:56.680Z,59.54
2018-07-15T06:51:24.359Z,59.49
2018-07-15T06:53:52.386Z,59.92
2018-07-15T06:56:21.966Z,59.44
2018-07-15T06:58:49.771Z,59.63
2018-07-15T07:01:17.902Z,59.27
2018-07-15T07:03:45.657Z,59.16
2018-07-15T07:06:13.422Z,58.99
2018-07-15T07:08:42.214Z,59.19
2018-07-15T07:11:10.080Z,58.90
2018-07-15T07:13:37.792Z,58.75
2018-07-15T07:16:05.523Z,58.90
2018-07-15T07:18:33.534Z,58.91
2018-07-15T07:21:01.300Z,58.84
2018-07-15T07:23:33.551Z,58.24
2018-07-15T07:26:02.127Z,58.27
2018-07-15T07:28:29.844Z,57.99
2018-07-15T07:30:57.759Z,57.90
2018-07-15T07:33:25.723Z,58.37
2018-07-15T07:35:54.281Z,58.19
2018-07-15T07:38:21.990Z,57.54
2018-07-15T07:40:50.006Z,57.84
2018-07-15T07:43:18.547Z,57.62
2018-07-15T07:45:48.651Z,57.23
2018-07-15T07:48:16.623Z,57.71
2018-07-15T07:50:44.351Z,57.27
2018-07-15T07:53:12.737Z,57.08
2018-07-15T07:55:41.051Z,56.86
2018-07-15T07:58:08.848Z,56.97
2018-07-15T08:00:36.592Z,57.22
2018-07-15T08:03:05.538Z,56.61
2018-07-15T08:05:33.246Z,57.10
2018-07-15T08:08:01.761Z,56.80
2018-07-15T08:10:29.776Z,56.76
2018-07-15T08:12:57.466Z,56.08
2018-07-15T08:15:25.216Z,55.89
2018-07-15T08:17:53.207Z,56.09
2018-07-15T08:20:20.923Z,55.81
2018-07-15T08:22:48.642Z,56.07
2018-07-15T08:25:16.608Z,55.29
2018-07-15T08:27:44.334Z,55.13
2018-07-15T08:30:13.539Z,55.54
2018-07-15T08:32:41.569Z,55.37
2018-07-15T08:35:10.043Z,55.20
2018-07-15T08:37:37.692Z,55.24
2018-07-15T08:40:05.647Z,54.63
2018-07-15T08:42:33.337Z,54.47
2018-07-15T08:45:00.998Z,54.75
2018-07-15T08:47:28.980Z,54.67
2018-07-15T08:49:56.694Z,54.35
2018-07-15T08:52:24.426Z,53.86
2018-07-15T08:54:52.350Z,54.23
2018-07-15T08:57:20.046Z,53.74
2018-07-15T08:59:47.774Z,53.96
2018-07-15T09:02:17.157Z,53.72
2018-07-15T09:04:44.810Z,53.58
2018-07-15T09:07:12.486Z,52.80
2018-07-15T09:09:40.440Z,53.39
2018-07-15T09:12:08.110Z,52.38
2018-07-15T09:14:36.422Z,52.42
2018-07-15T09:17:06.566Z,52.25
2018-07-15T09:19:34.261Z,52.51
2018-07-15T09:22:02.766Z,52.47
2018-07-15T09:24:31.137Z,51.88
2018-07-15T09:26:59.623Z,52.11
2018-07-15T09:29:29.001Z,52.01
2018-07-15T09:31:57.894Z,51.90
2018-07-15T09:34:25.556Z,51.12
2018-07-15T09:40:05.867Z,50.82
2018-07-15T09:42:33.581Z,50.77
2018-07-15T09:45:02.142Z,50.70
2018-07-15T09:47:29.874Z,50.39
2018-07-15T09:49:58.914Z,50.15
2018-07-15T09:52:26.889Z,49.92
2018-07-15T09:54:55.538Z,50.31
2018-07-15T09:57:28.682Z,50.05
2018-07-15T09:59:57.513Z,49.47
2018-07-15T10:02:25.224Z,49.25
2018-07-15T10:04:52.959Z,49.64
2018-07-15T10:07:21.779Z,48.83
2018-07-15T10:09:49.533Z,48.76
2018-07-15T10:12:20.207Z,48.66
2018-07-15T10:14:48.199Z,48.74
2018-07-15T10:17:16.471Z,48.20
2018-07-15T10:19:44.178Z,48.71
2018-07-15T10:22:13.500Z,48.49
2018-07-15T10:24:41.188Z,47.71
2018-07-15T10:27:09.753Z,47.26
2018-07-15T10:29:37.747Z,47.83
2018-07-15T10:32:06.593Z,47.19
2018-07-15T10:34:34.887Z,47.68
2018-07-15T10:37:02.885Z,47.42
2018-07-15T10:39:30.570Z,47.18
2018-07-15T10:41:59.517Z,47.07
2018-07-15T10:44:28.037Z,46.91
2018-07-15T10:46:55.740Z,46.15
2018-07-15T10:49:24.353Z,46.55
2018-07-15T10:51:53.187Z,46.18
2018-07-15T10:54:22.932Z,46.11
2018-07-15T10:56:51.574Z,45.24
2018-07-15T10:59:20.560Z,45.74
2018-07-15T11:01:51.921Z,44.93
2018-07-15T11:04:19.658Z,45.22
2018-07-15T11:06:48.347Z,44.39
2018-07-15T11:09:16.021Z,44.26
2018-07-15T11:11:44.674Z,44.58
2018-07-15T11:14:12.652Z,43.78
2018-07-15T11:16:41.196Z,43.46
2018-07-15T11:19:08.902Z,43.84
2018-07-15T11:21:37.029Z,43.09
2018-07-15T11:24:06.891Z,43.43
2018-07-15T11:26:35.531Z,42.76
2018-07-15T11:29:04.406Z,42.39
2018-07-15T11:31:32.825Z,42.29
2018-07-15T11:34:00.691Z,42.27
2018-07-15T11:36:30.242Z,42.63
2018-07-15T11:38:59.501Z,42.02
2018-07-15T11:41:27.281Z,41.46
2018-07-15T11:43:56.933Z,41.83
2018-07-15T11:46:26.725Z,41.53
2018-07-15T11:48:54.438Z,40.90
2018-07-15T11:51:22.420Z,40.80
2018-07-15T11:53:51.189Z,40.72
2018-07-15T11:56:20.438Z,40.45
2018-07-15T11:58:48.739Z,39.89
2018-07-15T12:01:17.459Z,40.61
2018-07-15T12:03:45.186Z,39.83
2018-07-15T12:06:14.887Z,39.69
2018-07-15T12:08:42.594Z,39.74
2018-07-15T12:11:10.321Z,39.16
2018-07-15T12:13:40.001Z,38.88
2018-07-15T12:16:07.767Z,39.22
2018-07-15T12:18:35.469Z,39.28
2018-07-15T12:21:03.780Z,39.26
2018-07-15T12:23:31.774Z,39.07
2018-07-15T12:26:00.142Z,38.92
2018-07-15T12:28:28.167Z,38.64
2018-07-15T12:30:55.887Z,38.22
2018-07-15T12:33:24.290Z,37.66
2018-07-15T12:35:52.693Z,37.95
2018-07-15T12:38:20.913Z,37.37
2018-07-15T12:40:51.578Z,37.57
2018-07-15T12:43:19.764Z,36.87
2018-07-15T12:45:47.473Z,37.09
2018-07-15T12:48:15.192Z,36.91
2018-07-15T12:50:44.286Z,36.84
2018-07-15T12:53:12.811Z,36.33
2018-07-15T12:55:41.216Z,35.57
2018-07-15T12:58:09.421Z,35.21
2018-07-15T13:00:38.711Z,35.00
2018-07-15T13:03:07.816Z,34.79
2018-07-15T13:05:37.448Z,34.81
2018-07-15T13:08:05.571Z,35.08
2018-07-15T13:10:35.695Z,34.94
2018-07-15T13:13:05.227Z,35.68
2018-07-15T13:15:32.938Z,35.68
2018-07-15T13:18:00.650Z,35.24
2018-07-15T13:20:29.865Z,34.83
2018-07-15T13:22:58.507Z,34.97
2018-07-15T13:25:26.221Z,34.72
2018-07-15T13:27:54.417Z,34.67
2018-07-15T13:30:26.236Z,34.16
2018-07-15T13:32:57.561Z,34.28
2018-07-15T13:35:26.445Z,34.63
2018-07-15T13:37:54.705Z,34.21
2018-07-15T13:40:24.350Z,34.18
2018-07-15T13:42:52.578Z,34.26
2018-07-15T13:45:20.927Z,33.43
2018-07-15T13:47:51.613Z,33.72
2018-07-15T13:50:21.338Z,33.74
2018-07-15T13:52:49.023Z,33.04
2018-07-15T13:55:16.731Z,33.09
2018-07-15T13:57:44.847Z,33.29
2018-07-15T14:00:13.520Z,32.75
2018-07-15T14:02:41.222Z,33.22
2018-07-15T14:05:09.540Z,33.03
2018-07-15T14:07:38.645Z,32.13
2018-07-15T14:10:07.323Z,32.60
2018-07-15T14:12:35.317Z,32.74
2018-07-15T14:15:04.394Z,32.86
2018-07-15T14:20:07.439Z,32.23
2018-07-15T14:22:36.646Z,32.30
2018-07-15T14:25:05.736Z,31.32
2018-07-15T14:27:34.455Z,31.48
2018-07-15T14:30:04.260Z,31.61
2018-07-15T14:32:33.532Z,31.63
2018-07-15T14:35:02.368Z,30.82
2018-07-15T14:37:30.689Z,31.40
2018-07-15T14:39:58.447Z,30.60
2018-07-15T14:42:29.137Z,30.69
2018-07-15T14:44:58.581Z,30.50
2018-07-15T14:47:33.591Z,30.87
2018-07-15T14:50:02.402Z,30.51
2018-07-15T14:52:30.769Z,30.77
2018-07-15T14:54:58.456Z,30.54
2018-07-15T14:57:27.596Z,30.19
2018-07-15T14:59:55.288Z,29.96
2018-07-15T15:02:22.993Z,30.68
2018-07-15T15:04:51.934Z,29.77
2018-07-15T15:07:20.308Z,30.37
2018-07-15T15:09:48.771Z,30.51
2018-07-15T15:12:16.756Z,30.10
2018-07-15T15:14:47.695Z,30.47
2018-07-15T15:17:16.417Z,29.80
2018-07-15T15:19:44.427Z,30.12
2018-07-15T15:22:13.145Z,29.44
2018-07-15T15:24:41.802Z,29.33
2018-07-15T15:27:10.313Z,29.95
2018-07-15T15:29:39.974Z,30.21
2018-07-15T15:32:08.381Z,29.40
2018-07-15T15:34:38.450Z,30.13
2018-07-15T15:37:07.072Z,29.98
2018-07-15T15:39:35.672Z,30.13
2018-07-15T15:42:04.749Z,29.81
2018-07-15T15:44:32.462Z,29.35
2018-07-15T15:47:00.176Z,29.85
2018-07-15T15:49:28.192Z,30.02
2018-07-15T15:51:56.641Z,29.85
2018-07-15T15:54:24.395Z,29.49
2018-07-15T15:56:52.627Z,29.63
2018-07-15T15:59:21.249Z,29.57
2018-07-15T16:01:48.966Z,29.14
2018-07-15T16:04:17.642Z,29.04
2018-07-15T16:06:46.152Z,29.65
2018-07-15T16:09:16.845Z,28.85
2018-07-15T16:11:45.214Z,28.89
2018-07-15T16:14:13.933Z,28.61
2018-07-15T16:16:42.667Z,28.46
2018-07-15T16:19:15.150Z,28.75
2018-07-15T16:21:45.460Z,29.38
2018-07-15T16:24:17.675Z,28.81
2018-07-15T16:26:47.457Z,28.64
2018-07-15T16:29:15.153Z,29.41
2018-07-15T16:31:47.454Z,28.66
2018-07-15T16:34:15.228Z,28.78
2018-07-15T16:36:42.904Z,29.20
2018-07-15T16:39:11.046Z,29.24
2018-07-15T16:41:39.428Z,29.64
2018-07-15T16:44:07.208Z,28.87
2018-07-15T16:46:36.205Z,28.93
2018-07-15T16:49:03.910Z,28.44
2018-07-15T16:51:33.082Z,29.52
2018-07-15T16:54:01.644Z,28.87
2018-07-15T16:56:29.341Z,29.50
2018-07-15T16:58:58.268Z,29.44
2018-07-15T17:01:26.305Z,28.86
2018-07-15T17:03:55.515Z,29.40
